Time;durP1;ratioP1;P1;durP2;ratioP2;P2;SDS_P1;SDS_P2;PMS_P1;PMS_P2;Temp;Humidity;BMP_temperature;BMP_pressure;BME280_temperature;BME280_humidity;BME280_pressure;Samples;Min_cycle;Max_cycle;Signal;HPM_P1;HPM_P2
2022/09/19 00:02:17;;;;;;;0.15;0.15;;;8.90;99.90;;;;;;5093723;28;20130;-73
2022/09/19 00:04:43;;;;;;;0.10;0.10;;;8.90;99.90;;;;;;5093771;28;20043;-74
2022/09/19 00:07:09;;;;;;;0.10;0.10;;;8.90;99.90;;;;;;5093587;28;20042;-73
2022/09/19 00:09:35;;;;;;;0.10;0.10;;;8.80;99.90;;;;;;5092150;28;20034;-73
2022/09/19 00:12:01;;;;;;;0.30;0.30;;;8.90;99.90;;;;;;5093547;28;20032;-74
2022/09/19 00:14:30;;;;;;;0.20;0.20;;;8.80;99.90;;;;;;5092275;28;20149;-73
2022/09/19 00:17:01;;;;;;;0.10;0.10;;;8.90;99.90;;;;;;5093482;28;20194;-73
2022/09/19 00:19:29;;;;;;;0.20;0.20;;;9.00;99.90;;;;;;5092379;28;20381;-73
2022/09/19 00:21:57;;;;;;;4.90;0.88;;;9.00;99.90;;;;;;5093487;28;20077;-73
2022/09/19 00:27:09;;;;;;;0.10;0.10;;;8.80;99.90;;;;;;5093476;28;20028;-73
2022/09/19 00:29:36;;;;;;;0.10;0.10;;;8.80;99.90;;;;;;5093277;28;20047;-73
2022/09/19 00:32:07;;;;;;;0.10;0.10;;;9.00;99.90;;;;;;5091921;28;20020;-73
2022/09/19 00:34:33;;;;;;;0.13;0.13;;;9.10;99.90;;;;;;5093075;28;20036;-73
2022/09/19 00:36:59;;;;;;;0.70;0.70;;;9.10;99.90;;;;;;5093043;28;20097;-73
2022/09/19 00:39:25;;;;;;;0.20;0.20;;;8.90;99.90;;;;;;5091907;28;20430;-73
2022/09/19 00:41:51;;;;;;;0.63;0.20;;;8.90;99.90;;;;;;5093113;28;20063;-73
2022/09/19 00:44:23;;;;;;;0.55;0.55;;;8.90;99.90;;;;;;5074722;28;20028;-73
2022/09/19 00:47:02;;;;;;;0.10;0.10;;;8.80;99.90;;;;;;5092860;28;20499;-73
2022/09/19 00:49:31;;;;;;;0.13;0.13;;;8.90;99.90;;;;;;5092984;28;20024;-73
2022/09/19 00:52:00;;;;;;;0.10;0.10;;;8.80;99.90;;;;;;5092926;28;20024;-73
2022/09/19 00:54:33;;;;;;;0.08;0.08;;;8.80;99.90;;;;;;5092922;28;20105;-73
2022/09/19 00:57:01;;;;;;;0.10;0.10;;;8.80;99.90;;;;;;5092752;28;20047;-73
2022/09/19 00:59:32;;;;;;;0.10;0.10;;;9.00;99.90;;;;;;5092741;28;20035;-73
2022/09/19 01:01:59;;;;;;;0.20;0.20;;;9.00;99.90;;;;;;5091357;28;20020;-73
2022/09/19 01:04:29;;;;;;;1.02;0.50;;;9.00;99.90;;;;;;5092570;28;20058;-73
2022/09/19 01:07:14;;;;;;;0.95;0.50;;;9.00;99.90;;;;;;5092579;28;20060;-73
2022/09/19 01:09:53;;;;;;;0.10;0.10;;;8.80;99.90;;;;;;5091051;28;20035;-73
2022/09/19 01:12:44;;;;;;;0.95;0.70;;;8.80;99.90;;;;;;5091072;28;20103;-73
2022/09/19 01:15:28;;;;;;;0.20;0.20;;;8.80;99.90;;;;;;5090972;28;20119;-73
2022/09/19 01:17:59;;;;;;;0.90;0.90;;;8.90;99.90;;;;;;5092464;28;20056;-73
2022/09/19 01:20:30;;;;;;;1.48;0.45;;;8.90;99.90;;;;;;5091347;28;20020;-73
2022/09/19 01:23:15;;;;;;;0.28;0.28;;;8.90;99.90;;;;;;5092414;28;20024;-73
2022/09/19 01:25:46;;;;;;;0.43;0.43;;;8.90;99.90;;;;;;5092286;28;20032;-73
2022/09/19 01:28:21;;;;;;;0.20;0.20;;;8.80;99.90;;;;;;5092189;28;20023;-73
2022/09/19 01:31:16;;;;;;;0.20;0.20;;;8.90;99.90;;;;;;5092277;28;20028;-73
2022/09/19 01:33:53;;;;;;;0.10;0.10;;;8.80;99.90;;;;;;5090837;28;20092;-73
2022/09/19 01:36:23;;;;;;;0.10;0.10;;;8.90;99.90;;;;;;5092123;28;20024;-74
2022/09/19 01:38:51;;;;;;;0.20;0.20;;;8.80;99.90;;;;;;5092166;28;20097;-73
2022/09/19 01:41:21;;;;;;;0.03;0.03;;;8.90;99.90;;;;;;5091890;28;20054;-73
2022/09/19 01:43:48;;;;;;;7.07;0.55;;;8.90;99.90;;;;;;5091992;28;20016;-74
2022/09/19 01:46:36;;;;;;;0.68;0.60;;;9.00;99.90;;;;;;5090661;28;20031;-73
2022/09/19 01:49:10;;;;;;;0.57;0.57;;;8.90;99.90;;;;;;5090774;28;20020;-73
2022/09/19 01:51:48;;;;;;;1.65;0.38;;;8.90;99.90;;;;;;5092037;28;20468;-73
2022/09/19 01:54:43;;;;;;;0.45;0.45;;;8.70;99.90;;;;;;5091841;28;20023;-73
2022/09/19 01:57:16;;;;;;;0.20;0.20;;;8.80;99.90;;;;;;5091866;28;20031;-73
2022/09/19 02:00:05;;;;;;;0.30;0.30;;;8.70;99.90;;;;;;5092171;28;20031;-73
2022/09/19 02:03:01;;;;;;;0.52;0.10;;;8.80;99.90;;;;;;5091893;28;20027;-73
2022/09/19 02:05:35;;;;;;;0.10;0.10;;;8.70;99.90;;;;;;5090499;28;20074;-73
2022/09/19 02:08:10;;;;;;;0.45;0.30;;;8.80;99.90;;;;;;5090336;28;20038;-73
2022/09/19 02:10:54;;;;;;;0.20;0.20;;;8.70;99.90;;;;;;5091810;28;20032;-73
2022/09/19 02:13:24;;;;;;;0.30;0.30;;;8.80;99.90;;;;;;5091766;28;20028;-73
2022/09/19 02:15:55;;;;;;;0.20;0.20;;;8.80;99.90;;;;;;5091522;28;20023;-73
2022/09/19 02:18:29;;;;;;;1.27;0.43;;;8.90;99.90;;;;;;5090570;28;20028;-73
2022/09/19 02:21:07;;;;;;;0.10;0.10;;;8.80;99.90;;;;;;5091833;28;20494;-73
2022/09/19 02:23:39;;;;;;;0.10;0.10;;;8.80;99.90;;;;;;5094220;28;20016;-73
2022/09/19 02:26:09;;;;;;;1.17;0.40;;;8.80;99.90;;;;;;5094293;28;20491;-73
2022/09/19 02:28:41;;;;;;;0.40;0.40;;;8.80;99.90;;;;;;5094400;28;20031;-73
2022/09/19 02:31:09;;;;;;;0.20;0.20;;;8.50;99.90;;;;;;5095761;28;20229;-73
2022/09/19 02:33:36;;;;;;;0.15;0.15;;;8.40;99.90;;;;;;5095582;28;20051;-73
2022/09/19 02:36:22;;;;;;;0.20;0.20;;;8.30;99.90;;;;;;5077104;28;20024;-73
2022/09/19 02:39:18;;;;;;;0.20;0.20;;;8.20;99.90;;;;;;5094206;28;20016;-73
2022/09/19 02:41:54;;;;;;;0.20;0.20;;;8.20;99.90;;;;;;5094151;28;20047;-73
2022/09/19 02:44:52;;;;;;;0.10;0.10;;;8.10;99.90;;;;;;5095281;28;20032;-73
2022/09/19 02:47:47;;;;;;;0.10;0.10;;;8.20;99.90;;;;;;5090966;28;20093;-73
2022/09/19 02:50:25;;;;;;;0.15;0.15;;;8.20;99.90;;;;;;5095233;28;20103;-73
2022/09/19 02:52:54;;;;;;;0.10;0.10;;;8.10;99.90;;;;;;5095118;28;20024;-73
2022/09/19 02:55:25;;;;;;;0.55;0.45;;;8.20;99.90;;;;;;5094927;28;20028;-74
2022/09/19 02:57:57;;;;;;;0.20;0.20;;;8.20;99.90;;;;;;5093970;28;20031;-73
2022/09/19 03:00:23;;;;;;;0.10;0.10;;;8.40;99.90;;;;;;5095158;28;20036;-73
2022/09/19 03:06:00;;;;;;;0.40;0.40;;;8.50;99.90;;;;;;5093099;28;20146;-74
2022/09/19 03:08:35;;;;;;;0.10;0.10;;;8.40;99.90;;;;;;5094873;28;20034;-74
2022/09/19 03:11:06;;;;;;;0.10;0.10;;;8.30;99.90;;;;;;5093584;28;20028;-74
2022/09/19 03:13:33;;;;;;;0.20;0.20;;;8.40;99.90;;;;;;5094760;28;20024;-73
2022/09/19 03:16:23;;;;;;;0.10;0.10;;;8.50;99.90;;;;;;5094548;28;20031;-73
2022/09/19 03:18:54;;;;;;;0.10;0.10;;;8.50;99.90;;;;;;5093511;28;20544;-73
2022/09/19 03:21:22;;;;;;;0.52;0.52;;;8.40;99.90;;;;;;5093423;28;20471;-73
2022/09/19 03:23:51;;;;;;;0.10;0.10;;;8.40;99.90;;;;;;5094983;28;20028;-73
2022/09/19 03:26:21;;;;;;;0.20;0.20;;;8.40;99.90;;;;;;5094326;28;20073;-73
2022/09/19 03:28:47;;;;;;;0.13;0.13;;;8.40;99.90;;;;;;5094621;28;20036;-73
2022/09/19 03:31:13;;;;;;;0.10;0.10;;;8.40;99.90;;;;;;5094504;28;20624;-73
2022/09/19 03:33:39;;;;;;;0.13;0.13;;;8.50;99.90;;;;;;5093864;28;20054;-74
2022/09/19 03:36:08;;;;;;;0.28;0.28;;;8.50;99.90;;;;;;5094131;28;20030;-73
2022/09/19 03:38:45;;;;;;;0.17;0.17;;;8.40;99.90;;;;;;5094292;28;20535;-73
2022/09/19 03:41:15;;;;;;;0.10;0.10;;;8.40;99.90;;;;;;5094116;28;20123;-73
2022/09/19 03:43:44;;;;;;;0.10;0.10;;;8.20;99.90;;;;;;5094200;28;20020;-74
2022/09/19 03:46:15;;;;;;;0.20;0.20;;;8.00;99.90;;;;;;5094004;28;20048;-73
2022/09/19 03:48:44;;;;;;;0.10;0.10;;;8.20;99.90;;;;;;5094129;28;20024;-73
2022/09/19 03:51:11;;;;;;;0.30;0.30;;;8.10;99.90;;;;;;5092605;28;20051;-74
2022/09/19 03:53:37;;;;;;;0.10;0.10;;;8.10;99.90;;;;;;5092611;28;20081;-73
2022/09/19 03:56:04;;;;;;;0.10;0.10;;;8.00;99.90;;;;;;5092545;28;20024;-73
2022/09/19 03:58:30;;;;;;;0.10;0.10;;;8.10;99.90;;;;;;5092569;28;20428;-73
2022/09/19 04:01:00;;;;;;;0.10;0.10;;;8.00;99.90;;;;;;5093988;28;20028;-73
2022/09/19 04:03:25;;;;;;;0.22;0.22;;;8.00;99.90;;;;;;5093731;28;20085;-74
2022/09/19 04:05:51;;;;;;;0.20;0.20;;;7.90;99.90;;;;;;5092501;28;20476;-73
2022/09/19 04:08:18;;;;;;;0.10;0.10;;;7.90;99.90;;;;;;5093561;28;20017;-74
2022/09/19 04:10:44;;;;;;;0.10;0.10;;;7.80;99.90;;;;;;5093850;28;20024;-73
2022/09/19 04:13:11;;;;;;;0.20;0.20;;;7.90;99.90;;;;;;5093492;28;20020;-73
2022/09/19 04:15:38;;;;;;;0.10;0.10;;;7.80;99.90;;;;;;5092218;28;20054;-73
2022/09/19 04:18:04;;;;;;;0.20;0.20;;;7.80;99.90;;;;;;5092406;28;20020;-73
2022/09/19 04:20:31;;;;;;;0.17;0.17;;;7.60;99.90;;;;;;5093726;28;20046;-73
2022/09/19 04:23:00;;;;;;;0.10;0.10;;;7.60;99.90;;;;;;5093485;28;20024;-73
2022/09/19 04:25:35;;;;;;;0.30;0.30;;;7.60;99.90;;;;;;5092153;28;20024;-73
2022/09/19 04:28:07;;;;;;;0.10;0.10;;;7.60;99.90;;;;;;5093988;28;20468;-73
2022/09/19 04:30:35;;;;;;;0.13;0.13;;;7.70;99.90;;;;;;5093303;28;20491;-73
2022/09/19 04:33:07;;;;;;;0.20;0.20;;;7.90;99.90;;;;;;5093451;28;20031;-73
2022/09/19 04:35:35;;;;;;;0.10;0.10;;;7.80;99.90;;;;;;5092933;28;20479;-73
2022/09/19 04:38:06;;;;;;;0.10;0.10;;;7.70;99.90;;;;;;5092980;28;20023;-73
2022/09/19 04:40:44;;;;;;;0.20;0.20;;;7.60;99.90;;;;;;5088426;28;20399;-73
2022/09/19 04:43:11;;;;;;;0.30;0.30;;;7.60;99.90;;;;;;5057246;28;20067;-73
2022/09/19 04:45:39;;;;;;;0.20;0.20;;;7.50;99.90;;;;;;5077142;28;20081;-73
2022/09/19 04:48:06;;;;;;;3.03;0.63;;;7.50;99.90;;;;;;5090664;28;20021;-73
2022/09/19 04:50:36;;;;;;;0.13;0.13;;;7.50;99.90;;;;;;5079954;28;20502;-73
2022/09/19 04:53:03;;;;;;;0.20;0.20;;;7.60;99.90;;;;;;5071227;28;20028;-73
2022/09/19 04:55:29;;;;;;;0.20;0.20;;;7.70;99.90;;;;;;5071048;28;20059;-73
2022/09/19 04:57:56;;;;;;;0.20;0.20;;;7.40;99.90;;;;;;5072426;28;20369;-73
2022/09/19 05:00:41;;;;;;;0.55;0.45;;;7.40;99.90;;;;;;5072365;28;20017;-73
2022/09/19 05:03:12;;;;;;;0.10;0.10;;;7.40;99.90;;;;;;5071062;28;20024;-74
2022/09/19 05:05:50;;;;;;;0.32;0.32;;;7.50;99.90;;;;;;5070736;28;20025;-73
2022/09/19 05:08:24;;;;;;;0.20;0.20;;;7.50;99.90;;;;;;5075050;28;20036;-73
2022/09/19 05:10:51;;;;;;;0.10;0.10;;;7.40;99.90;;;;;;5072207;28;20043;-73
2022/09/19 05:13:17;;;;;;;0.40;0.40;;;7.50;99.90;;;;;;5072092;28;20099;-74
2022/09/19 05:15:44;;;;;;;0.10;0.10;;;7.50;99.90;;;;;;5072084;28;20028;-73
2022/09/19 05:18:11;;;;;;;0.20;0.20;;;7.50;99.90;;;;;;5071087;28;20027;-73
2022/09/19 05:20:37;;;;;;;0.20;0.20;;;7.40;99.90;;;;;;5072205;28;20035;-73
2022/09/19 05:23:04;;;;;;;1.58;0.35;;;7.40;99.90;;;;;;5072042;28;20085;-73
2022/09/19 05:25:34;;;;;;;0.20;0.20;;;7.40;99.90;;;;;;5088918;28;20032;-73
2022/09/19 05:28:04;;;;;;;4.07;1.85;;;7.50;99.90;;;;;;5072038;28;20023;-73
2022/09/19 05:30:32;;;;;;;0.20;0.20;;;7.50;99.90;;;;;;5072116;28;20107;-73
2022/09/19 05:32:59;;;;;;;0.20;0.20;;;7.40;99.90;;;;;;5070741;28;20056;-74
2022/09/19 05:35:26;;;;;;;0.20;0.20;;;7.30;99.90;;;;;;5071746;28;20112;-75
2022/09/19 05:37:52;;;;;;;0.20;0.20;;;7.20;99.90;;;;;;5071890;28;20096;-73
2022/09/19 05:40:18;;;;;;;1.58;0.50;;;7.20;99.90;;;;;;5069764;28;20116;-73
2022/09/19 05:42:49;;;;;;;0.10;0.10;;;7.30;99.90;;;;;;5068721;28;20020;-73
2022/09/19 05:45:16;;;;;;;0.13;0.13;;;7.30;99.90;;;;;;5052423;28;20029;-73
2022/09/19 05:47:42;;;;;;;0.20;0.20;;;7.40;99.90;;;;;;5070978;28;20456;-73
2022/09/19 05:50:10;;;;;;;0.90;0.50;;;7.40;99.90;;;;;;5070482;28;20124;-74
2022/09/19 05:55:22;;;;;;;0.30;0.30;;;7.30;99.90;;;;;;5071300;28;20024;-73
2022/09/19 05:57:53;;;;;;;1.00;0.57;;;7.20;99.90;;;;;;5076827;28;20025;-73
2022/09/19 06:00:26;;;;;;;0.57;0.57;;;7.30;99.90;;;;;;5078400;28;20017;-73
2022/09/19 06:03:00;;;;;;;0.30;0.30;;;7.30;99.90;;;;;;5078357;28;20030;-73
2022/09/19 06:05:32;;;;;;;0.10;0.10;;;7.30;99.90;;;;;;5078213;28;20029;-73
2022/09/19 06:07:58;;;;;;;0.25;0.25;;;7.40;99.90;;;;;;5078294;28;20017;-73
2022/09/19 06:10:25;;;;;;;0.20;0.20;;;7.40;99.90;;;;;;5078215;28;20036;-73
2022/09/19 06:12:54;;;;;;;0.52;0.30;;;7.40;99.90;;;;;;5078314;28;20103;-73
2022/09/19 06:15:20;;;;;;;0.20;0.20;;;7.50;99.90;;;;;;5076947;28;20028;-73
2022/09/19 06:17:49;;;;;;;3.38;0.90;;;7.40;99.90;;;;;;5078390;28;20503;-73
2022/09/19 06:20:16;;;;;;;0.10;0.10;;;7.50;99.90;;;;;;5076939;28;20048;-73
2022/09/19 06:22:42;;;;;;;0.20;0.20;;;7.60;99.90;;;;;;5078192;28;20017;-73
2022/09/19 06:25:08;;;;;;;0.10;0.10;;;7.60;99.90;;;;;;5078042;28;20039;-73
2022/09/19 06:27:36;;;;;;;1.00;0.40;;;7.70;99.90;;;;;;5078228;28;20412;-74
2022/09/19 06:30:03;;;;;;;0.10;0.10;;;7.80;99.90;;;;;;5076950;28;20117;-73
2022/09/19 06:32:29;;;;;;;0.20;0.20;;;7.80;99.90;;;;;;5077886;28;20031;-73
2022/09/19 06:34:54;;;;;;;6.97;0.45;;;7.80;99.90;;;;;;5077941;28;20469;-74
2022/09/19 06:37:20;;;;;;;0.20;0.20;;;7.90;99.90;;;;;;5076654;28;20031;-74
2022/09/19 06:39:46;;;;;;;1.35;0.50;;;7.90;99.90;;;;;;5069895;28;20021;-74
2022/09/19 06:42:12;;;;;;;0.28;0.28;;;7.90;99.90;;;;;;5079008;28;20659;-73
2022/09/19 06:44:38;;;;;;;0.55;0.30;;;7.90;99.90;;;;;;5098214;28;20039;-74
2022/09/19 06:47:05;;;;;;;0.20;0.20;;;8.00;99.90;;;;;;5090870;28;20537;-74
2022/09/19 06:49:32;;;;;;;0.65;0.65;;;8.00;99.90;;;;;;5078249;28;20031;-74
2022/09/19 06:51:58;;;;;;;0.20;0.20;;;8.00;99.90;;;;;;5079767;28;20090;-74
2022/09/19 06:54:24;;;;;;;0.10;0.10;;;8.10;99.90;;;;;;5077635;28;20028;-74
2022/09/19 06:56:51;;;;;;;0.20;0.20;;;8.10;99.90;;;;;;5077663;28;20031;-74
2022/09/19 06:59:18;;;;;;;0.20;0.20;;;8.30;99.90;;;;;;5077913;28;20028;-74
2022/09/19 07:01:45;;;;;;;1.17;1.17;;;8.30;99.90;;;;;;5077818;28;20333;-74
2022/09/19 07:04:11;;;;;;;0.20;0.20;;;8.20;99.90;;;;;;5077506;28;20013;-74
2022/09/19 07:06:37;;;;;;;0.30;0.30;;;8.20;99.90;;;;;;5059572;28;20093;-74
2022/09/19 07:09:05;;;;;;;8.98;1.27;;;8.10;99.90;;;;;;5074847;28;20104;-75
2022/09/19 07:11:31;;;;;;;0.20;0.20;;;8.30;99.90;;;;;;5074669;28;20058;-74
2022/09/19 07:13:57;;;;;;;1.98;0.20;;;8.40;99.90;;;;;;5092509;28;20027;-74
2022/09/19 07:16:23;;;;;;;0.20;0.20;;;8.40;99.90;;;;;;5094570;28;20495;-75
2022/09/19 07:18:49;;;;;;;0.17;0.17;;;8.30;99.90;;;;;;5093168;28;20400;-74
2022/09/19 07:21:15;;;;;;;0.10;0.10;;;8.40;99.90;;;;;;5094641;28;20031;-73
2022/09/19 07:23:41;;;;;;;0.30;0.30;;;8.50;99.90;;;;;;5093069;28;20016;-74
2022/09/19 07:26:07;;;;;;;0.17;0.17;;;8.60;99.90;;;;;;5094362;28;20369;-74
2022/09/19 07:28:32;;;;;;;0.63;0.50;;;8.80;99.90;;;;;;5093119;28;20020;-74
2022/09/19 07:31:00;;;;;;;0.20;0.20;;;8.90;99.90;;;;;;5094361;28;20024;-74
2022/09/19 07:33:28;;;;;;;4.90;0.45;;;8.80;99.90;;;;;;5086131;28;20081;-73
2022/09/19 07:35:55;;;;;;;6.85;0.60;;;8.80;99.90;;;;;;5077228;28;20020;-74
2022/09/19 07:38:23;;;;;;;0.28;0.28;;;8.90;99.90;;;;;;5074707;28;20016;-74
2022/09/19 07:40:50;;;;;;;0.20;0.20;;;9.00;99.90;;;;;;5084021;28;20035;-75
2022/09/19 07:43:16;;;;;;;0.30;0.30;;;8.90;99.90;;;;;;5077747;28;20024;-74
2022/09/19 07:45:50;;;;;;;0.15;0.15;;;9.00;99.90;;;;;;5088168;28;20103;-74
2022/09/19 07:48:17;;;;;;;0.35;0.35;;;9.10;99.90;;;;;;5093730;28;20107;-75
2022/09/19 07:50:44;;;;;;;0.10;0.10;;;9.20;99.90;;;;;;5092600;28;20024;-74
2022/09/19 07:53:12;;;;;;;0.20;0.20;;;9.20;99.90;;;;;;5093537;28;20111;-74
2022/09/19 07:55:38;;;;;;;0.40;0.40;;;9.00;99.90;;;;;;5093715;28;20023;-75
2022/09/19 07:58:05;;;;;;;2.05;1.02;;;9.10;99.90;;;;;;5092077;28;20639;-74
2022/09/19 08:00:32;;;;;;;0.60;0.45;;;9.20;99.90;;;;;;5078147;28;20036;-74
2022/09/19 08:03:18;;;;;;;0.30;0.30;;;9.10;99.90;;;;;;5091169;28;20644;-74
2022/09/19 08:05:47;;;;;;;0.10;0.10;;;9.00;99.90;;;;;;5073369;28;20036;-74
2022/09/19 08:08:15;;;;;;;0.10;0.10;;;9.00;99.90;;;;;;5082970;28;20382;-75
2022/09/19 08:10:42;;;;;;;0.20;0.20;;;9.20;99.90;;;;;;5092531;28;20058;-74
2022/09/19 08:13:10;;;;;;;0.20;0.20;;;9.30;99.90;;;;;;5092225;28;20031;-74
2022/09/19 08:15:37;;;;;;;0.73;0.73;;;9.10;99.90;;;;;;5091935;28;20027;-74
2022/09/19 08:18:06;;;;;;;0.17;0.17;;;9.00;99.90;;;;;;5073209;28;20051;-74
2022/09/19 08:20:36;;;;;;;0.20;0.20;;;9.20;99.90;;;;;;5071997;28;20035;-74
2022/09/19 08:23:08;;;;;;;0.45;0.45;;;9.30;99.90;;;;;;5090087;28;20091;-75
2022/09/19 08:25:38;;;;;;;2.05;0.60;;;9.60;99.90;;;;;;5093077;28;20418;-74
2022/09/19 08:28:04;;;;;;;0.10;0.10;;;9.60;99.90;;;;;;5082604;28;20024;-74
2022/09/19 08:30:31;;;;;;;0.10;0.10;;;9.70;99.90;;;;;;5073010;28;20078;-74
2022/09/19 08:33:00;;;;;;;0.13;0.13;;;10.00;99.90;;;;;;5071403;28;20470;-74
2022/09/19 08:35:27;;;;;;;0.20;0.20;;;10.10;99.90;;;;;;5078359;28;20353;-74
2022/09/19 08:37:58;;;;;;;0.10;0.10;;;10.00;99.90;;;;;;5062679;28;20021;-74
2022/09/19 08:40:28;;;;;;;0.10;0.10;;;9.90;99.90;;;;;;5072736;28;20024;-75
2022/09/19 08:43:19;;;;;;;0.40;0.20;;;9.90;99.90;;;;;;5072605;28;20024;-74
2022/09/19 08:46:01;;;;;;;0.10;0.10;;;9.90;99.90;;;;;;5072524;28;20392;-75
2022/09/19 08:48:45;;;;;;;0.10;0.10;;;9.80;99.90;;;;;;5072692;28;20408;-74
2022/09/19 08:51:33;;;;;;;0.10;0.10;;;9.80;99.90;;;;;;5072704;28;20503;-74
2022/09/19 08:54:26;;;;;;;1.45;0.45;;;9.70;99.90;;;;;;5072540;28;20028;-74
2022/09/19 08:56:52;;;;;;;0.10;0.10;;;9.80;99.90;;;;;;5068088;28;20040;-74
2022/09/19 08:59:24;;;;;;;1.25;0.50;;;9.70;99.90;;;;;;5071232;28;20024;-74
2022/09/19 09:01:57;;;;;;;11.25;2.25;;;9.60;99.90;;;;;;5071206;28;20153;-74
2022/09/19 09:04:30;;;;;;;0.75;0.30;;;9.70;99.90;;;;;;5072495;28;20055;-74
2022/09/19 09:07:15;;;;;;;0.10;0.10;;;9.70;99.90;;;;;;5073115;28;20028;-74
2022/09/19 09:10:03;;;;;;;0.20;0.20;;;9.80;99.90;;;;;;5077235;28;20024;-74
2022/09/19 09:12:58;;;;;;;0.20;0.20;;;10.20;99.90;;;;;;5061898;28;20386;-74
2022/09/19 09:15:45;;;;;;;3.33;3.13;;;10.30;99.90;;;;;;5072150;28;20542;-74
2022/09/19 09:18:37;;;;;;;0.10;0.10;;;10.40;99.90;;;;;;5053544;28;20016;-75
2022/09/19 09:21:25;;;;;;;1.17;0.60;;;10.20;99.90;;;;;;5071920;28;20086;-74
2022/09/19 09:24:03;;;;;;;0.30;0.30;;;10.30;99.90;;;;;;5081875;28;20095;-74
2022/09/19 09:26:36;;;;;;;0.20;0.20;;;10.30;99.90;;;;;;5076788;28;20547;-74
2022/09/19 09:29:30;;;;;;;0.20;0.20;;;10.10;99.90;;;;;;5072000;28;20364;-75
2022/09/19 09:32:30;;;;;;;0.10;0.10;;;10.00;99.90;;;;;;5071010;28;20077;-75
2022/09/19 09:35:16;;;;;;;1.02;0.55;;;10.20;99.90;;;;;;5071851;28;20110;-74
2022/09/19 09:37:56;;;;;;;0.30;0.30;;;10.00;99.90;;;;;;5081524;28;20498;-75
2022/09/19 09:43:17;;;;;;;0.85;0.40;;;10.00;99.90;;;;;;5079026;28;20021;-74
2022/09/19 09:45:46;;;;;;;0.63;0.63;;;10.00;99.90;;;;;;5071578;28;20093;-75
2022/09/19 09:48:19;;;;;;;4.80;0.80;;;10.00;99.90;;;;;;5071811;28;20029;-74
2022/09/19 09:50:55;;;;;;;0.20;0.20;;;10.10;99.90;;;;;;5077604;28;20099;-75
2022/09/19 09:53:46;;;;;;;0.20;0.20;;;10.30;99.90;;;;;;5086459;28;20024;-74
2022/09/19 09:56:32;;;;;;;0.10;0.10;;;10.30;99.90;;;;;;5070339;28;20032;-75
2022/09/19 10:05:13;;;;;;;0.20;0.20;;;10.50;99.90;;;;;;5071263;28;20035;-75
2022/09/19 10:08:02;;;;;;;0.20;0.20;;;10.90;99.90;;;;;;5070704;28;20017;-75
2022/09/19 10:10:31;;;;;;;0.65;0.65;;;11.00;99.90;;;;;;5070406;28;20036;-75
2022/09/19 10:13:07;;;;;;;0.20;0.20;;;11.10;99.90;;;;;;5071095;28;20036;-75
2022/09/19 10:15:39;;;;;;;0.40;0.40;;;11.10;99.90;;;;;;5069769;28;20024;-74
2022/09/19 10:18:13;;;;;;;0.45;0.45;;;11.20;99.90;;;;;;5069429;28;20024;-74
2022/09/19 10:20:49;;;;;;;0.10;0.10;;;11.50;99.90;;;;;;5071321;28;20029;-75
2022/09/19 10:23:23;;;;;;;2.42;0.17;;;11.80;99.90;;;;;;5071377;28;20477;-74
2022/09/19 10:25:51;;;;;;;0.20;0.20;;;11.70;99.90;;;;;;5071348;28;20492;-75
2022/09/19 10:28:30;;;;;;;1.75;0.70;;;11.40;99.90;;;;;;5070145;28;20028;-75
2022/09/19 10:31:01;;;;;;;0.20;0.20;;;11.10;99.90;;;;;;5071320;28;20031;-75
2022/09/19 10:33:38;;;;;;;0.63;0.63;;;11.30;99.90;;;;;;5071453;28;20393;-75
2022/09/19 10:36:25;;;;;;;11.80;0.98;;;11.30;99.90;;;;;;5071111;28;20024;-76
2022/09/19 10:38:54;;;;;;;0.20;0.20;;;11.30;99.90;;;;;;5071348;28;20016;-75
2022/09/19 10:41:22;;;;;;;1.55;0.40;;;11.20;99.90;;;;;;5071047;28;20037;-74
2022/09/19 10:43:51;;;;;;;0.20;0.20;;;11.20;99.90;;;;;;5071041;28;20020;-76
2022/09/19 10:46:25;;;;;;;1.40;1.38;;;11.30;99.90;;;;;;5074870;28;20028;-75
2022/09/19 10:48:55;;;;;;;0.20;0.20;;;11.40;99.90;;;;;;5075094;28;20100;-75
2022/09/19 10:51:22;;;;;;;0.28;0.25;;;11.70;99.90;;;;;;5074781;28;20051;-75
2022/09/19 10:53:54;;;;;;;0.20;0.20;;;11.50;99.90;;;;;;5073649;28;20035;-75
2022/09/19 10:56:28;;;;;;;0.30;0.30;;;11.40;99.90;;;;;;5073237;28;20136;-75
2022/09/19 10:59:23;;;;;;;0.55;0.55;;;11.60;99.90;;;;;;5073359;28;20108;-75
2022/09/19 11:02:22;;;;;;;1.00;1.00;;;11.60;99.90;;;;;;5074817;28;20029;-75
2022/09/19 11:05:02;;;;;;;0.20;0.20;;;11.50;99.90;;;;;;5074633;28;20044;-76
2022/09/19 11:07:54;;;;;;;0.20;0.20;;;11.50;99.90;;;;;;5075015;28;20031;-75
2022/09/19 11:10:38;;;;;;;0.20;0.20;;;11.50;99.90;;;;;;5074652;28;20445;-75
2022/09/19 11:13:11;;;;;;;0.20;0.20;;;11.50;99.90;;;;;;5072900;28;20547;-76
2022/09/19 11:15:50;;;;;;;7.80;0.30;;;11.60;99.90;;;;;;5072677;28;20105;-75
2022/09/19 11:18:30;;;;;;;0.17;0.17;;;11.70;99.90;;;;;;5074444;28;20021;-75
2022/09/19 11:21:30;;;;;;;0.20;0.20;;;12.20;99.90;;;;;;5074420;28;20020;-75
2022/09/19 11:24:15;;;;;;;0.20;0.20;;;13.20;99.90;;;;;;5067391;28;20036;-75
2022/09/19 11:27:00;;;;;;;0.63;0.30;;;13.10;99.90;;;;;;5074187;28;20028;-74
2022/09/19 11:29:40;;;;;;;0.10;0.10;;;12.90;99.90;;;;;;5074232;28;20085;-75
2022/09/19 11:32:57;;;;;;;0.10;0.10;;;13.10;99.90;;;;;;5078823;28;20020;-75
2022/09/19 11:35:25;;;;;;;0.20;0.20;;;13.40;99.90;;;;;;5076207;28;20069;-74
2022/09/19 11:38:19;;;;;;;0.10;0.10;;;13.30;99.90;;;;;;5092123;28;20021;-74
2022/09/19 11:41:12;;;;;;;0.10;0.10;;;13.50;99.90;;;;;;5079588;28;20048;-74
2022/09/19 11:44:01;;;;;;;0.40;0.40;;;13.40;99.90;;;;;;5072991;28;20024;-75
2022/09/19 11:46:42;;;;;;;0.22;0.22;;;13.40;99.90;;;;;;5072532;28;20028;-74
2022/09/19 11:49:39;;;;;;;0.20;0.20;;;13.20;99.90;;;;;;5070826;28;20052;-75
2022/09/19 11:52:26;;;;;;;0.20;0.20;;;12.70;99.90;;;;;;5073958;28;20024;-74
2022/09/19 11:55:13;;;;;;;0.20;0.20;;;12.50;99.90;;;;;;5072114;28;20051;-75
2022/09/19 11:57:46;;;;;;;0.10;0.10;;;12.50;99.90;;;;;;5073597;28;20028;-74
2022/09/19 12:00:20;;;;;;;0.30;0.30;;;12.40;99.90;;;;;;5073666;28;20016;-75
2022/09/19 12:02:58;;;;;;;0.65;0.30;;;12.50;99.90;;;;;;5073354;28;20024;-74
2022/09/19 12:05:31;;;;;;;0.10;0.10;;;12.40;99.90;;;;;;5072198;28;20052;-75
2022/09/19 12:08:14;;;;;;;0.47;0.47;;;12.40;99.90;;;;;;5072349;28;20025;-74
2022/09/19 12:10:49;;;;;;;0.10;0.10;;;12.60;99.90;;;;;;5073463;28;20028;-74
2022/09/19 12:13:42;;;;;;;0.13;0.13;;;12.40;99.90;;;;;;5072082;28;20028;-74
2022/09/19 12:16:14;;;;;;;0.32;0.32;;;12.50;99.90;;;;;;5073327;28;20021;-74
2022/09/19 12:18:44;;;;;;;0.13;0.13;;;12.60;99.90;;;;;;5073551;28;20048;-74
2022/09/19 12:21:12;;;;;;;0.85;0.28;;;12.60;99.90;;;;;;5073118;28;20013;-75
2022/09/19 12:26:56;;;;;;;0.10;0.10;;;13.00;99.90;;;;;;5073115;28;20091;-75
2022/09/19 12:29:38;;;;;;;0.15;0.15;;;13.70;99.90;;;;;;5073209;28;20116;-75
2022/09/19 12:32:14;;;;;;;;;;;13.80;99.90;;;;;;5072080;28;20038;-75
2022/09/19 12:35:04;;;;;;;0.10;0.10;;;13.90;99.90;;;;;;5071515;28;19908;-76
2022/09/19 12:37:54;;;;;;;1.02;0.20;;;13.90;99.90;;;;;;5068250;28;20396;-75
2022/09/19 12:40:28;;;;;;;0.15;0.15;;;14.30;99.90;;;;;;5072764;28;20159;-76
2022/09/19 12:43:11;;;;;;;0.20;0.20;;;14.40;99.90;;;;;;5072750;28;20016;-75
2022/09/19 12:45:46;;;;;;;0.10;0.10;;;14.30;99.90;;;;;;5072621;28;20029;-76
2022/09/19 12:48:21;;;;;;;0.10;0.10;;;14.30;99.90;;;;;;5072700;28;20025;-76
2022/09/19 12:50:50;;;;;;;0.20;0.20;;;14.70;99.90;;;;;;5072851;28;20020;-76
2022/09/19 12:53:31;;;;;;;0.10;0.10;;;14.90;99.30;;;;;;5072515;28;20039;-76
2022/09/19 12:56:03;;;;;;;0.25;0.25;;;14.70;99.90;;;;;;5072417;28;20115;-75
2022/09/19 12:59:02;;;;;;;0.20;0.20;;;14.10;97.40;;;;;;5072501;28;20028;-76
2022/09/19 13:01:40;;;;;;;10.75;0.45;;;13.70;96.90;;;;;;5072193;28;20048;-75
2022/09/19 13:04:29;;;;;;;0.10;0.10;;;13.40;96.30;;;;;;5070924;28;20020;-75
2022/09/19 13:07:01;;;;;;;0.10;0.10;;;13.50;97.90;;;;;;5071656;28;20480;-75
2022/09/19 13:09:37;;;;;;;0.10;0.10;;;13.50;97.80;;;;;;5072249;28;20028;-75
2022/09/19 13:12:14;;;;;;;0.20;0.20;;;13.50;97.30;;;;;;5072261;28;20021;-75
2022/09/19 13:14:44;;;;;;;0.40;0.30;;;13.40;97.10;;;;;;5070667;28;20032;-75
2022/09/19 13:25:48;;;;;;;0.17;0.17;;;13.50;99.60;;;;;;5071716;28;20020;-75
2022/09/19 13:28:19;;;;;;;0.20;0.20;;;13.50;99.90;;;;;;5071961;28;20450;-75
2022/09/19 13:30:58;;;;;;;0.20;0.20;;;13.80;99.90;;;;;;5071825;28;20029;-75
2022/09/19 13:33:34;;;;;;;0.93;0.60;;;13.80;99.90;;;;;;5071746;28;20033;-75
2022/09/19 13:36:09;;;;;;;0.10;0.10;;;13.80;99.90;;;;;;5071779;28;20024;-75
2022/09/19 13:38:49;;;;;;;1.00;0.90;;;14.00;99.90;;;;;;5071888;28;20020;-75
2022/09/19 13:41:41;;;;;;;0.10;0.10;;;14.00;99.20;;;;;;5070507;28;20373;-75
2022/09/19 13:44:30;;;;;;;0.10;0.10;;;13.90;99.30;;;;;;5070591;28;20016;-75
2022/09/19 13:46:58;;;;;;;0.25;0.25;;;13.50;99.90;;;;;;5070191;28;20039;-75
2022/09/19 13:49:33;;;;;;;0.80;0.32;;;13.30;99.90;;;;;;5070390;28;20085;-75
2022/09/19 13:52:15;;;;;;;4.43;0.60;;;13.10;99.90;;;;;;5070466;28;20025;-75
2022/09/19 13:54:50;;;;;;;0.20;0.20;;;13.40;99.90;;;;;;5071615;28;20020;-75
2022/09/19 13:57:21;;;;;;;0.20;0.20;;;13.50;99.90;;;;;;5071674;28;20064;-75